sensor_id;sensor_type;location;lat;lon;timestamp;pressure;altitude;pressure_sealevel;temperature;humidity
16613;BME280;8419;52.358;9.752;2023-04-01T00:01:38;98839.00;;;20.93;41.58
16613;BME280;8419;52.358;9.752;2023-04-01T00:04:23;98843.00;;;20.95;41.56
16613;BME280;8419;52.358;9.752;2023-04-01T00:07:09;98836.00;;;20.96;41.59
16613;BME280;8419;52.358;9.752;2023-04-01T00:09:55;98838.00;;;21.01;41.50
16613;BME280;8419;52.358;9.752;2023-04-01T00:12:40;98836.00;;;20.96;41.58
16613;BME280;8419;52.358;9.752;2023-04-01T00:15:28;98833.00;;;20.97;41.59
16613;BME280;8419;52.358;9.752;2023-04-01T00:18:14;98839.00;;;21.05;41.44
16613;BME280;8419;52.358;9.752;2023-04-01T00:20:59;98831.00;;;21.05;41.40
16613;BME280;8419;52.358;9.752;2023-04-01T00:23:45;98841.00;;;21.03;41.46
16613;BME280;8419;52.358;9.752;2023-04-01T00:26:31;98836.00;;;21.05;41.38
16613;BME280;8419;52.358;9.752;2023-04-01T00:29:16;98843.00;;;21.04;41.41
16613;BME280;8419;52.358;9.752;2023-04-01T00:32:02;98840.00;;;21.02;41.41
16613;BME280;8419;52.358;9.752;2023-04-01T00:34:50;98837.00;;;21.04;41.32
16613;BME280;8419;52.358;9.752;2023-04-01T00:37:37;98838.00;;;21.03;41.31
16613;BME280;8419;52.358;9.752;2023-04-01T00:40:28;98837.00;;;20.98;41.35
16613;BME280;8419;52.358;9.752;2023-04-01T00:43:16;98834.00;;;20.95;41.38
16613;BME280;8419;52.358;9.752;2023-04-01T00:46:03;98831.00;;;20.90;41.39
16613;BME280;8419;52.358;9.752;2023-04-01T00:48:52;98834.00;;;20.85;41.41
16613;BME280;8419;52.358;9.752;2023-04-01T00:51:39;98834.00;;;20.77;41.48
16613;BME280;8419;52.358;9.752;2023-04-01T00:54:28;98834.00;;;20.72;41.62
16613;BME280;8419;52.358;9.752;2023-04-01T00:57:19;98835.00;;;20.69;41.65
16613;BME280;8419;52.358;9.752;2023-04-01T01:00:11;98840.00;;;20.68;41.67
16613;BME280;8419;52.358;9.752;2023-04-01T01:02:58;98837.00;;;20.68;41.61
16613;BME280;8419;52.358;9.752;2023-04-01T01:06:06;98841.00;;;20.67;41.59
16613;BME280;8419;52.358;9.752;2023-04-01T01:09:04;98844.00;;;20.58;41.74
16613;BME280;8419;52.358;9.752;2023-04-01T01:11:57;98846.00;;;20.58;41.70
16613;BME280;8419;52.358;9.752;2023-04-01T01:14:52;98838.00;;;20.58;41.65
16613;BME280;8419;52.358;9.752;2023-04-01T01:17:47;98839.00;;;20.57;41.63
16613;BME280;8419;52.358;9.752;2023-04-01T01:20:46;98841.00;;;20.58;41.55
16613;BME280;8419;52.358;9.752;2023-04-01T01:23:53;98835.00;;;20.55;41.61
16613;BME280;8419;52.358;9.752;2023-04-01T01:27:02;98838.00;;;20.52;41.65
16613;BME280;8419;52.358;9.752;2023-04-01T01:30:13;98840.00;;;20.60;41.40
16613;BME280;8419;52.358;9.752;2023-04-01T01:33:12;98841.00;;;20.55;41.46
16613;BME280;8419;52.358;9.752;2023-04-01T01:36:05;98838.00;;;20.50;41.54
16613;BME280;8419;52.358;9.752;2023-04-01T01:38:52;98836.00;;;20.51;41.46
16613;BME280;8419;52.358;9.752;2023-04-01T01:41:38;98838.00;;;20.47;41.55
16613;BME280;8419;52.358;9.752;2023-04-01T01:44:26;98839.00;;;20.46;41.61
16613;BME280;8419;52.358;9.752;2023-04-01T01:47:12;98838.00;;;20.55;41.41
16613;BME280;8419;52.358;9.752;2023-04-01T01:50:00;98837.00;;;20.48;41.51
16613;BME280;8419;52.358;9.752;2023-04-01T01:52:46;98837.00;;;20.54;41.44
16613;BME280;8419;52.358;9.752;2023-04-01T01:55:34;98837.00;;;20.58;41.36
16613;BME280;8419;52.358;9.752;2023-04-01T01:58:23;98837.00;;;20.57;41.40
16613;BME280;8419;52.358;9.752;2023-04-01T02:01:13;98839.00;;;20.57;41.47
16613;BME280;8419;52.358;9.752;2023-04-01T02:04:00;98835.00;;;20.60;41.43
16613;BME280;8419;52.358;9.752;2023-04-01T02:06:52;98840.00;;;20.63;41.33
16613;BME280;8419;52.358;9.752;2023-04-01T02:09:39;98847.00;;;20.64;41.37
16613;BME280;8419;52.358;9.752;2023-04-01T02:12:26;98841.00;;;20.72;41.19
16613;BME280;8419;52.358;9.752;2023-04-01T02:15:14;98842.00;;;20.70;41.24
16613;BME280;8419;52.358;9.752;2023-04-01T02:18:01;98843.00;;;20.63;41.40
16613;BME280;8419;52.358;9.752;2023-04-01T02:20:47;98841.00;;;20.70;41.23
16613;BME280;8419;52.358;9.752;2023-04-01T02:23:35;98843.00;;;20.68;41.23
16613;BME280;8419;52.358;9.752;2023-04-01T02:26:23;98837.00;;;20.71;41.17
16613;BME280;8419;52.358;9.752;2023-04-01T02:29:12;98848.00;;;20.61;41.39
16613;BME280;8419;52.358;9.752;2023-04-01T02:31:58;98844.00;;;20.64;41.33
16613;BME280;8419;52.358;9.752;2023-04-01T02:34:44;98844.00;;;20.61;41.37
16613;BME280;8419;52.358;9.752;2023-04-01T02:37:29;98847.00;;;20.65;41.30
16613;BME280;8419;52.358;9.752;2023-04-01T02:40:15;98847.00;;;20.70;41.15
16613;BME280;8419;52.358;9.752;2023-04-01T02:43:02;98846.00;;;20.70;41.16
16613;BME280;8419;52.358;9.752;2023-04-01T02:45:48;98844.00;;;20.64;41.24
16613;BME280;8419;52.358;9.752;2023-04-01T02:48:34;98846.00;;;20.67;41.22
16613;BME280;8419;52.358;9.752;2023-04-01T02:51:19;98848.00;;;20.68;41.18
16613;BME280;8419;52.358;9.752;2023-04-01T02:54:05;98850.00;;;20.66;41.23
16613;BME280;8419;52.358;9.752;2023-04-01T02:56:51;98852.00;;;20.68;41.18
16613;BME280;8419;52.358;9.752;2023-04-01T02:59:36;98853.00;;;20.69;41.14
16613;BME280;8419;52.358;9.752;2023-04-01T03:02:22;98849.00;;;20.73;41.05
16613;BME280;8419;52.358;9.752;2023-04-01T03:05:08;98859.00;;;20.73;41.02
16613;BME280;8419;52.358;9.752;2023-04-01T03:07:54;98854.00;;;20.76;40.97
16613;BME280;8419;52.358;9.752;2023-04-01T03:10:39;98861.00;;;20.75;40.97
16613;BME280;8419;52.358;9.752;2023-04-01T03:13:25;98854.00;;;20.75;40.97
16613;BME280;8419;52.358;9.752;2023-04-01T03:16:11;98859.00;;;20.76;40.95
16613;BME280;8419;52.358;9.752;2023-04-01T03:18:56;98850.00;;;20.70;41.03
16613;BME280;8419;52.358;9.752;2023-04-01T03:21:43;98857.00;;;20.75;40.99
16613;BME280;8419;52.358;9.752;2023-04-01T03:24:29;98856.00;;;20.63;41.22
16613;BME280;8419;52.358;9.752;2023-04-01T03:27:14;98856.00;;;20.79;40.94
16613;BME280;8419;52.358;9.752;2023-04-01T03:30:00;98861.00;;;20.82;40.88
16613;BME280;8419;52.358;9.752;2023-04-01T03:32:46;98855.00;;;20.75;40.99
16613;BME280;8419;52.358;9.752;2023-04-01T03:35:31;98861.00;;;20.77;40.97
16613;BME280;8419;52.358;9.752;2023-04-01T03:38:17;98856.00;;;20.66;41.16
16613;BME280;8419;52.358;9.752;2023-04-01T03:41:03;98851.00;;;20.76;40.97
16613;BME280;8419;52.358;9.752;2023-04-01T03:43:48;98861.00;;;20.87;40.72
16613;BME280;8419;52.358;9.752;2023-04-01T03:46:34;98859.00;;;20.71;41.01
16613;BME280;8419;52.358;9.752;2023-04-01T03:49:20;98859.00;;;20.71;41.03
16613;BME280;8419;52.358;9.752;2023-04-01T03:52:09;98867.00;;;20.73;41.02
16613;BME280;8419;52.358;9.752;2023-04-01T03:54:55;98870.00;;;20.78;40.94
16613;BME280;8419;52.358;9.752;2023-04-01T03:57:40;98871.00;;;20.82;40.93
16613;BME280;8419;52.358;9.752;2023-04-01T04:00:25;98868.00;;;20.86;40.81
16613;BME280;8419;52.358;9.752;2023-04-01T04:03:10;98870.00;;;20.86;40.78
16613;BME280;8419;52.358;9.752;2023-04-01T04:05:56;98872.00;;;20.79;40.90
16613;BME280;8419;52.358;9.752;2023-04-01T04:08:41;98869.00;;;20.77;40.95
16613;BME280;8419;52.358;9.752;2023-04-01T04:11:27;98865.00;;;20.76;40.97
16613;BME280;8419;52.358;9.752;2023-04-01T04:14:12;98877.00;;;20.71;41.06
16613;BME280;8419;52.358;9.752;2023-04-01T04:16:57;98879.00;;;20.75;41.00
16613;BME280;8419;52.358;9.752;2023-04-01T04:19:43;98872.00;;;20.66;41.17
16613;BME280;8419;52.358;9.752;2023-04-01T04:22:29;98874.00;;;20.69;41.13
16613;BME280;8419;52.358;9.752;2023-04-01T04:25:15;98878.00;;;20.70;41.14
16613;BME280;8419;52.358;9.752;2023-04-01T04:28:01;98878.00;;;20.60;41.33
16613;BME280;8419;52.358;9.752;2023-04-01T04:30:47;98873.00;;;20.60;41.35
16613;BME280;8419;52.358;9.752;2023-04-01T04:33:32;98877.00;;;20.66;41.24
16613;BME280;8419;52.358;9.752;2023-04-01T04:36:18;98876.00;;;20.58;41.38
16613;BME280;8419;52.358;9.752;2023-04-01T04:39:03;98881.00;;;20.58;41.40
16613;BME280;8419;52.358;9.752;2023-04-01T04:41:49;98884.00;;;20.52;41.53
16613;BME280;8419;52.358;9.752;2023-04-01T04:44:35;98888.00;;;20.48;41.66
16613;BME280;8419;52.358;9.752;2023-04-01T04:47:20;98890.00;;;20.46;41.69
16613;BME280;8419;52.358;9.752;2023-04-01T04:50:08;98886.00;;;20.42;41.74
16613;BME280;8419;52.358;9.752;2023-04-01T04:52:53;98890.00;;;20.41;41.76
16613;BME280;8419;52.358;9.752;2023-04-01T04:55:43;98890.00;;;20.41;41.75
16613;BME280;8419;52.358;9.752;2023-04-01T04:58:29;98885.00;;;20.38;41.80
16613;BME280;8419;52.358;9.752;2023-04-01T05:01:16;98896.00;;;20.42;41.76
16613;BME280;8419;52.358;9.752;2023-04-01T05:04:02;98895.00;;;20.41;41.75
16613;BME280;8419;52.358;9.752;2023-04-01T05:06:47;98892.00;;;20.39;41.69
16613;BME280;8419;52.358;9.752;2023-04-01T05:09:33;98897.00;;;20.35;41.75
16613;BME280;8419;52.358;9.752;2023-04-01T05:12:18;98896.00;;;20.32;41.81
16613;BME280;8419;52.358;9.752;2023-04-01T05:15:05;98898.00;;;20.30;41.87
16613;BME280;8419;52.358;9.752;2023-04-01T05:17:51;98905.00;;;20.29;41.87
16613;BME280;8419;52.358;9.752;2023-04-01T05:20:36;98903.00;;;20.28;41.91
16613;BME280;8419;52.358;9.752;2023-04-01T05:23:22;98900.00;;;20.28;41.91
16613;BME280;8419;52.358;9.752;2023-04-01T05:26:11;98904.00;;;20.27;41.96
16613;BME280;8419;52.358;9.752;2023-04-01T05:28:56;98902.00;;;20.26;41.98
16613;BME280;8419;52.358;9.752;2023-04-01T05:31:42;98900.00;;;20.28;41.93
16613;BME280;8419;52.358;9.752;2023-04-01T05:34:27;98900.00;;;20.28;41.99
16613;BME280;8419;52.358;9.752;2023-04-01T05:37:13;98910.00;;;20.37;41.87
16613;BME280;8419;52.358;9.752;2023-04-01T05:39:58;98908.00;;;20.39;41.89
16613;BME280;8419;52.358;9.752;2023-04-01T05:42:43;98914.00;;;20.30;42.11
16613;BME280;8419;52.358;9.752;2023-04-01T05:45:29;98913.00;;;20.37;42.04
16613;BME280;8419;52.358;9.752;2023-04-01T05:48:15;98907.00;;;20.40;42.08
16613;BME280;8419;52.358;9.752;2023-04-01T05:51:00;98915.00;;;20.42;42.08
16613;BME280;8419;52.358;9.752;2023-04-01T05:53:46;98920.00;;;20.43;42.15
16613;BME280;8419;52.358;9.752;2023-04-01T05:56:32;98919.00;;;20.47;42.11
16613;BME280;8419;52.358;9.752;2023-04-01T05:59:17;98918.00;;;20.56;42.04
16613;BME280;8419;52.358;9.752;2023-04-01T06:02:03;98921.00;;;20.67;41.88
16613;BME280;8419;52.358;9.752;2023-04-01T06:04:49;98928.00;;;20.71;41.92
16613;BME280;8419;52.358;9.752;2023-04-01T06:07:34;98928.00;;;20.74;41.92
16613;BME280;8419;52.358;9.752;2023-04-01T06:10:21;98926.00;;;20.79;41.88
16613;BME280;8419;52.358;9.752;2023-04-01T06:13:14;98931.00;;;20.84;41.89
16613;BME280;8419;52.358;9.752;2023-04-01T06:16:09;98936.00;;;20.95;41.80
16613;BME280;8419;52.358;9.752;2023-04-01T06:19:09;98936.00;;;21.08;41.69
16613;BME280;8419;52.358;9.752;2023-04-01T06:22:13;98930.00;;;21.16;41.62
16613;BME280;8419;52.358;9.752;2023-04-01T06:35:37;98949.00;;;21.52;41.40
16613;BME280;8419;52.358;9.752;2023-04-01T06:38:51;98947.00;;;21.51;41.27
16613;BME280;8419;52.358;9.752;2023-04-01T06:45:26;98952.00;;;21.72;41.11
16613;BME280;8419;52.358;9.752;2023-04-01T06:48:27;98956.00;;;21.63;41.12
16613;BME280;8419;52.358;9.752;2023-04-01T06:51:24;98956.00;;;21.68;41.09
16613;BME280;8419;52.358;9.752;2023-04-01T06:54:16;98960.00;;;21.73;41.00
16613;BME280;8419;52.358;9.752;2023-04-01T06:57:08;98956.00;;;21.83;40.84
16613;BME280;8419;52.358;9.752;2023-04-01T07:00:02;98963.00;;;21.90;40.74
16613;BME280;8419;52.358;9.752;2023-04-01T07:02:52;98968.00;;;21.94;40.69
16613;BME280;8419;52.358;9.752;2023-04-01T07:05:42;98969.00;;;22.02;40.64
16613;BME280;8419;52.358;9.752;2023-04-01T07:08:29;98970.00;;;22.04;40.59
16613;BME280;8419;52.358;9.752;2023-04-01T07:11:24;98966.00;;;21.89;40.92
16613;BME280;8419;52.358;9.752;2023-04-01T07:14:18;98973.00;;;22.01;40.69
16613;BME280;8419;52.358;9.752;2023-04-01T07:17:07;98977.00;;;21.89;40.94
16613;BME280;8419;52.358;9.752;2023-04-01T07:20:02;98969.00;;;21.89;40.92
16613;BME280;8419;52.358;9.752;2023-04-01T07:22:50;98981.00;;;21.89;40.92
16613;BME280;8419;52.358;9.752;2023-04-01T07:25:39;98980.00;;;21.89;40.90
16613;BME280;8419;52.358;9.752;2023-04-01T07:28:40;98979.00;;;21.93;40.86
16613;BME280;8419;52.358;9.752;2023-04-01T07:31:40;98982.00;;;21.98;40.80
16613;BME280;8419;52.358;9.752;2023-04-01T07:34:35;98984.00;;;22.09;40.56
16613;BME280;8419;52.358;9.752;2023-04-01T07:37:30;98998.00;;;22.00;40.68
16613;BME280;8419;52.358;9.752;2023-04-01T07:40:23;98993.00;;;22.04;40.62
16613;BME280;8419;52.358;9.752;2023-04-01T07:43:38;99001.00;;;22.11;40.57
16613;BME280;8419;52.358;9.752;2023-04-01T07:50:04;99004.00;;;22.41;40.44
16613;BME280;8419;52.358;9.752;2023-04-01T07:53:00;99008.00;;;22.39;40.46
16613;BME280;8419;52.358;9.752;2023-04-01T07:55:56;99011.00;;;22.59;40.20
16613;BME280;8419;52.358;9.752;2023-04-01T07:58:55;99019.00;;;22.75;39.93
16613;BME280;8419;52.358;9.752;2023-04-01T08:01:49;99013.00;;;22.88;39.80
16613;BME280;8419;52.358;9.752;2023-04-01T08:04:47;99024.00;;;23.06;39.65
16613;BME280;8419;52.358;9.752;2023-04-01T08:07:43;99020.00;;;23.23;39.49
16613;BME280;8419;52.358;9.752;2023-04-01T08:10:34;99025.00;;;23.32;39.36
16613;BME280;8419;52.358;9.752;2023-04-01T08:13:30;99029.00;;;23.42;39.23
16613;BME280;8419;52.358;9.752;2023-04-01T08:16:26;99027.00;;;23.49;39.13
16613;BME280;8419;52.358;9.752;2023-04-01T08:19:28;99033.00;;;23.54;39.05
16613;BME280;8419;52.358;9.752;2023-04-01T08:22:21;99030.00;;;23.72;38.85
16613;BME280;8419;52.358;9.752;2023-04-01T08:25:16;99030.00;;;23.79;38.80
16613;BME280;8419;52.358;9.752;2023-04-01T08:28:12;99042.00;;;23.97;38.64
16613;BME280;8419;52.358;9.752;2023-04-01T08:31:04;99039.00;;;24.10;38.43
16613;BME280;8419;52.358;9.752;2023-04-01T08:33:53;99045.00;;;24.30;38.08
16613;BME280;8419;52.358;9.752;2023-04-01T08:36:42;99049.00;;;24.44;37.90
16613;BME280;8419;52.358;9.752;2023-04-01T08:39:31;99046.00;;;24.50;37.80
16613;BME280;8419;52.358;9.752;2023-04-01T08:42:42;99040.00;;;24.53;37.71
16613;BME280;8419;52.358;9.752;2023-04-01T08:45:56;99045.00;;;24.50;37.68
16613;BME280;8419;52.358;9.752;2023-04-01T08:49:02;99045.00;;;24.48;37.71
16613;BME280;8419;52.358;9.752;2023-04-01T08:52:13;99057.00;;;24.57;37.60
16613;BME280;8419;52.358;9.752;2023-04-01T09:02:04;99062.00;;;24.90;37.00
16613;BME280;8419;52.358;9.752;2023-04-01T09:05:16;99059.00;;;24.85;37.01
16613;BME280;8419;52.358;9.752;2023-04-01T09:08:22;99061.00;;;25.06;36.72
16613;BME280;8419;52.358;9.752;2023-04-01T09:11:25;99067.00;;;25.18;36.54
16613;BME280;8419;52.358;9.752;2023-04-01T09:14:34;99071.00;;;25.25;36.42
16613;BME280;8419;52.358;9.752;2023-04-01T09:17:49;99064.00;;;25.41;36.13
16613;BME280;8419;52.358;9.752;2023-04-01T09:20:46;99066.00;;;25.58;35.91
16613;BME280;8419;52.358;9.752;2023-04-01T09:23:56;99063.00;;;25.60;35.78
16613;BME280;8419;52.358;9.752;2023-04-01T09:27:01;99072.00;;;25.79;35.53
16613;BME280;8419;52.358;9.752;2023-04-01T09:30:03;99077.00;;;25.87;35.41
16613;BME280;8419;52.358;9.752;2023-04-01T09:33:10;99071.00;;;25.91;35.28
16613;BME280;8419;52.358;9.752;2023-04-01T09:36:14;99083.00;;;25.92;35.12
16613;BME280;8419;52.358;9.752;2023-04-01T09:39:23;99076.00;;;25.81;35.06
16613;BME280;8419;52.358;9.752;2023-04-01T09:45:44;99085.00;;;25.63;35.13
16613;BME280;8419;52.358;9.752;2023-04-01T09:48:42;99087.00;;;25.55;35.14
16613;BME280;8419;52.358;9.752;2023-04-01T09:51:36;99098.00;;;25.45;35.13
16613;BME280;8419;52.358;9.752;2023-04-01T09:54:36;99094.00;;;25.41;35.12
16613;BME280;8419;52.358;9.752;2023-04-01T09:57:53;99096.00;;;25.47;34.97
16613;BME280;8419;52.358;9.752;2023-04-01T10:01:20;99105.00;;;25.38;34.88
16613;BME280;8419;52.358;9.752;2023-04-01T10:04:34;99095.00;;;25.33;34.85
16613;BME280;8419;52.358;9.752;2023-04-01T10:14:25;99120.00;;;25.35;34.68
16613;BME280;8419;52.358;9.752;2023-04-01T10:17:36;99117.00;;;25.53;34.34
16613;BME280;8419;52.358;9.752;2023-04-01T10:21:03;99117.00;;;25.58;34.26
16613;BME280;8419;52.358;9.752;2023-04-01T10:31:05;99124.00;;;25.31;34.58
16613;BME280;8419;52.358;9.752;2023-04-01T10:34:19;99126.00;;;25.22;34.62
16613;BME280;8419;52.358;9.752;2023-04-01T10:37:41;99131.00;;;25.22;34.56
16613;BME280;8419;52.358;9.752;2023-04-01T10:44:25;99133.00;;;25.30;34.45
16613;BME280;8419;52.358;9.752;2023-04-01T10:47:39;99129.00;;;25.13;
16613;BME280;8419;52.358;9.752;2023-04-01T10:50:54;99136.00;;;25.02;34.67
16613;BME280;8419;52.358;9.752;2023-04-01T10:54:21;99123.00;;;25.04;34.77
16613;BME280;8419;52.358;9.752;2023-04-01T11:08:42;99141.00;;;25.09;34.30
16613;BME280;8419;52.358;9.752;2023-04-01T11:12:00;99150.00;;;25.01;34.30
16613;BME280;8419;52.358;9.752;2023-04-01T11:15:15;99152.00;;;24.90;34.49
16613;BME280;8419;52.358;9.752;2023-04-01T11:18:46;99161.00;;;24.81;34.60
16613;BME280;8419;52.358;9.752;2023-04-01T11:22:09;99152.00;;;24.69;34.71
16613;BME280;8419;52.358;9.752;2023-04-01T11:25:36;99163.00;;;24.61;34.83
16613;BME280;8419;52.358;9.752;2023-04-01T11:28:48;99171.00;;;24.58;34.87
16613;BME280;8419;52.358;9.752;2023-04-01T11:31:40;99168.00;;;24.71;34.86
16613;BME280;8419;52.358;9.752;2023-04-01T11:34:48;99177.00;;;24.81;34.72
16613;BME280;8419;52.358;9.752;2023-04-01T11:37:42;99179.00;;;24.86;34.73
16613;BME280;8419;52.358;9.752;2023-04-01T11:40:35;99172.00;;;24.81;34.77
16613;BME280;8419;52.358;9.752;2023-04-01T11:43:29;99175.00;;;24.83;34.81
16613;BME280;8419;52.358;9.752;2023-04-01T11:46:25;99186.00;;;24.97;34.79
16613;BME280;8419;52.358;9.752;2023-04-01T11:49:26;99178.00;;;25.08;34.68
16613;BME280;8419;52.358;9.752;2023-04-01T11:52:26;99184.00;;;25.15;34.55
16613;BME280;8419;52.358;9.752;2023-04-01T11:55:25;99190.00;;;24.82;35.22
16613;BME280;8419;52.358;9.752;2023-04-01T11:58:36;99186.00;;;25.32;34.60
16613;BME280;8419;52.358;9.752;2023-04-01T12:01:36;99190.00;;;25.66;34.22
16613;BME280;8419;52.358;9.752;2023-04-01T12:04:40;99190.00;;;25.53;34.52
16613;BME280;8419;52.358;9.752;2023-04-01T12:07:50;99192.00;;;26.09;33.92
16613;BME280;8419;52.358;9.752;2023-04-01T12:10:42;99194.00;;;26.53;33.31
16613;BME280;8419;52.358;9.752;2023-04-01T12:13:39;99195.00;;;26.75;33.01
16613;BME280;8419;52.358;9.752;2023-04-01T12:16:41;99206.00;;;26.98;32.70
16613;BME280;8419;52.358;9.752;2023-04-01T12:19:39;99202.00;;;27.11;32.62
16613;BME280;8419;52.358;9.752;2023-04-01T12:22:48;99207.00;;;27.17;32.49
16613;BME280;8419;52.358;9.752;2023-04-01T12:26:03;99212.00;;;27.07;32.52
16613;BME280;8419;52.358;9.752;2023-04-01T12:29:04;99214.00;;;26.91;32.74
16613;BME280;8419;52.358;9.752;2023-04-01T12:31:56;99215.00;;;26.84;32.74
16613;BME280;8419;52.358;9.752;2023-04-01T12:34:58;99211.00;;;26.80;32.70
16613;BME280;8419;52.358;9.752;2023-04-01T12:38:00;99214.00;;;26.88;32.66
16613;BME280;8419;52.358;9.752;2023-04-01T12:41:01;99219.00;;;26.85;32.60
16613;BME280;8419;52.358;9.752;2023-04-01T12:44:19;99221.00;;;26.96;32.51
16613;BME280;8419;52.358;9.752;2023-04-01T12:47:21;99231.00;;;27.20;32.27
16613;BME280;8419;52.358;9.752;2023-04-01T12:54:11;99232.00;;;27.56;31.87
16613;BME280;8419;52.358;9.752;2023-04-01T12:57:13;99242.00;;;27.39;31.95
16613;BME280;8419;52.358;9.752;2023-04-01T13:00:21;99239.00;;;27.25;32.04
16613;BME280;8419;52.358;9.752;2023-04-01T13:03:22;99244.00;;;27.13;32.18
16613;BME280;8419;52.358;9.752;2023-04-01T13:06:33;99241.00;;;27.02;32.26
16613;BME280;8419;52.358;9.752;2023-04-01T13:09:39;99252.00;;;26.90;32.33
16613;BME280;8419;52.358;9.752;2023-04-01T13:12:44;99249.00;;;26.67;32.42
16613;BME280;8419;52.358;9.752;2023-04-01T13:15:37;99253.00;;;26.49;32.56
16613;BME280;8419;52.358;9.752;2023-04-01T13:18:34;99257.00;;;26.32;32.69
16613;BME280;8419;52.358;9.752;2023-04-01T13:21:32;99267.00;;;26.07;32.98
16613;BME280;8419;52.358;9.752;2023-04-01T13:24:30;99276.00;;;25.87;33.24
16613;BME280;8419;52.358;9.752;2023-04-01T13:27:29;99272.00;;;25.79;33.33
16613;BME280;8419;52.358;9.752;2023-04-01T13:30:24;99277.00;;;25.85;33.33
16613;BME280;8419;52.358;9.752;2023-04-01T13:33:17;99287.00;;;25.88;33.32
16613;BME280;8419;52.358;9.752;2023-04-01T13:36:17;99284.00;;;25.89;33.27
16613;BME280;8419;52.358;9.752;2023-04-01T13:39:20;99291.00;;;25.98;33.16
16613;BME280;8419;52.358;9.752;2023-04-01T13:42:18;99292.00;;;25.97;33.11
16613;BME280;8419;52.358;9.752;2023-04-01T13:45:14;99289.00;;;25.96;33.17
16613;BME280;8419;52.358;9.752;2023-04-01T13:48:34;99297.00;;;25.94;33.25
16613;BME280;8419;52.358;9.752;2023-04-01T13:51:32;99298.00;;;25.98;33.21
16613;BME280;8419;52.358;9.752;2023-04-01T13:54:33;99299.00;;;25.93;33.27
16613;BME280;8419;52.358;9.752;2023-04-01T13:57:37;99306.00;;;25.94;33.35
16613;BME280;8419;52.358;9.752;2023-04-01T14:00:45;99312.00;;;25.88;33.48
16613;BME280;8419;52.358;9.752;2023-04-01T14:03:57;99319.00;;;25.89;33.46
16613;BME280;8419;52.358;9.752;2023-04-01T14:06:56;99316.00;;;25.62;33.76
16613;BME280;8419;52.358;9.752;2023-04-01T14:09:53;99329.00;;;25.18;34.38
16613;BME280;8419;52.358;9.752;2023-04-01T14:12:49;99327.00;;;24.90;34.71
16613;BME280;8419;52.358;9.752;2023-04-01T14:15:52;99332.00;;;24.31;35.63
16613;BME280;8419;52.358;9.752;2023-04-01T14:18:55;99342.00;;;24.48;35.25
16613;BME280;8419;52.358;9.752;2023-04-01T14:21:47;99344.00;;;24.32;35.42
16613;BME280;8419;52.358;9.752;2023-04-01T14:24:57;99360.00;;;24.12;35.63
16613;BME280;8419;52.358;9.752;2023-04-01T14:27:57;99358.00;;;24.07;35.68
16613;BME280;8419;52.358;9.752;2023-04-01T14:31:04;99365.00;;;23.99;35.69
16613;BME280;8419;52.358;9.752;2023-04-01T14:34:11;99363.00;;;23.86;35.81
16613;BME280;8419;52.358;9.752;2023-04-01T14:37:14;99378.00;;;23.79;35.96
16613;BME280;8419;52.358;9.752;2023-04-01T14:40:26;99376.00;;;23.75;35.92
16613;BME280;8419;52.358;9.752;2023-04-01T14:43:24;99377.00;;;23.62;35.98
16613;BME280;8419;52.358;9.752;2023-04-01T14:49:53;99388.00;;;23.19;36.71
16613;BME280;8419;52.358;9.752;2023-04-01T14:52:55;99398.00;;;23.06;36.74
16613;BME280;8419;52.358;9.752;2023-04-01T14:55:49;99403.00;;;22.76;37.18
16613;BME280;8419;52.358;9.752;2023-04-01T14:58:44;99406.00;;;23.02;36.73
16613;BME280;8419;52.358;9.752;2023-04-01T15:01:37;99409.00;;;23.01;36.68
16613;BME280;8419;52.358;9.752;2023-04-01T15:04:41;99421.00;;;22.92;36.71
16613;BME280;8419;52.358;9.752;2023-04-01T15:08:00;99424.00;;;22.84;36.84
16613;BME280;8419;52.358;9.752;2023-04-01T15:11:01;99425.00;;;22.81;36.82
16613;BME280;8419;52.358;9.752;2023-04-01T15:14:12;99434.00;;;22.64;36.97
16613;BME280;8419;52.358;9.752;2023-04-01T15:17:14;99444.00;;;22.55;37.06
16613;BME280;8419;52.358;9.752;2023-04-01T15:20:29;99456.00;;;22.46;37.06
16613;BME280;8419;52.358;9.752;2023-04-01T15:23:26;99454.00;;;22.40;37.14
16613;BME280;8419;52.358;9.752;2023-04-01T15:26:20;99459.00;;;22.25;37.23
16613;BME280;8419;52.358;9.752;2023-04-01T15:29:47;99474.00;;;22.16;37.33
16613;BME280;8419;52.358;9.752;2023-04-01T15:32:55;99485.00;;;22.10;37.37
16613;BME280;8419;52.358;9.752;2023-04-01T15:35:52;99493.00;;;22.02;37.41
16613;BME280;8419;52.358;9.752;2023-04-01T15:38:48;99495.00;;;21.92;37.52
16613;BME280;8419;52.358;9.752;2023-04-01T15:41:45;99483.00;;;21.70;37.82
16613;BME280;8419;52.358;9.752;2023-04-01T15:44:52;99504.00;;;21.63;37.87
16613;BME280;8419;52.358;9.752;2023-04-01T15:47:42;99514.00;;;21.51;38.01
16613;BME280;8419;52.358;9.752;2023-04-01T15:50:40;99511.00;;;21.41;38.00
16613;BME280;8419;52.358;9.752;2023-04-01T15:53:40;99521.00;;;21.34;38.11
16613;BME280;8419;52.358;9.752;2023-04-01T15:56:40;99518.00;;;21.26;38.22
16613;BME280;8419;52.358;9.752;2023-04-01T15:59:47;99533.00;;;21.15;38.30
16613;BME280;8419;52.358;9.752;2023-04-01T16:02:54;99541.00;;;21.03;38.47
16613;BME280;8419;52.358;9.752;2023-04-01T16:06:08;99544.00;;;21.00;38.54
16613;BME280;8419;52.358;9.752;2023-04-01T16:09:04;99554.00;;;20.86;38.66
16613;BME280;8419;52.358;9.752;2023-04-01T16:11:58;99566.00;;;20.87;38.59
16613;BME280;8419;52.358;9.752;2023-04-01T16:14:58;99570.00;;;20.83;38.57
16613;BME280;8419;52.358;9.752;2023-04-01T16:18:06;99573.00;;;20.84;38.51
16613;BME280;8419;52.358;9.752;2023-04-01T16:21:06;99579.00;;;20.69;38.66
16613;BME280;8419;52.358;9.752;2023-04-01T16:23:57;99590.00;;;20.75;38.50
16613;BME280;8419;52.358;9.752;2023-04-01T16:26:51;99580.00;;;20.71;38.52
16613;BME280;8419;52.358;9.752;2023-04-01T16:29:46;99588.00;;;20.63;38.59
16613;BME280;8419;52.358;9.752;2023-04-01T16:32:44;99595.00;;;20.58;38.62
16613;BME280;8419;52.358;9.752;2023-04-01T16:35:40;99598.00;;;20.57;38.67
16613;BME280;8419;52.358;9.752;2023-04-01T16:38:36;99610.00;;;20.52;38.69
16613;BME280;8419;52.358;9.752;2023-04-01T16:41:28;99605.00;;;20.46;38.74
16613;BME280;8419;52.358;9.752;2023-04-01T16:44:21;99614.00;;;20.38;38.75
16613;BME280;8419;52.358;9.752;2023-04-01T16:47:10;99617.00;;;20.22;38.97